sensor_id;sensor_type;location;lat;lon;timestamp;P1;durP1;ratioP1;P2;durP2;ratioP2
35326;SDS011;21436;52.348;20.928;2022-09-14T00:01:29;11.88;;;8.98;;
35326;SDS011;21436;52.348;20.928;2022-09-14T00:03:59;12.00;;;9.38;;
35326;SDS011;21436;52.348;20.928;2022-09-14T00:06:31;11.88;;;9.05;;
35326;SDS011;21436;52.348;20.928;2022-09-14T00:08:59;13.13;;;9.13;;
35326;SDS011;21436;52.348;20.928;2022-09-14T00:11:29;12.60;;;9.02;;
35326;SDS011;21436;52.348;20.928;2022-09-14T00:13:58;13.00;;;8.50;;
35326;SDS011;21436;52.348;20.928;2022-09-14T00:16:28;13.95;;;9.07;;
35326;SDS011;21436;52.348;20.928;2022-09-14T00:19:02;13.45;;;8.48;;
35326;SDS011;21436;52.348;20.928;2022-09-14T00:21:36;14.85;;;8.68;;
35326;SDS011;21436;52.348;20.928;2022-09-14T00:24:05;13.48;;;8.98;;
35326;SDS011;21436;52.348;20.928;2022-09-14T00:26:33;12.07;;;8.40;;
35326;SDS011;21436;52.348;20.928;2022-09-14T00:29:01;13.27;;;8.85;;
35326;SDS011;21436;52.348;20.928;2022-09-14T00:31:32;15.27;;;9.82;;
35326;SDS011;21436;52.348;20.928;2022-09-14T00:34:02;11.80;;;9.07;;
35326;SDS011;21436;52.348;20.928;2022-09-14T00:36:31;12.20;;;8.90;;
35326;SDS011;21436;52.348;20.928;2022-09-14T00:39:00;10.48;;;9.00;;
35326;SDS011;21436;52.348;20.928;2022-09-14T00:41:31;12.02;;;8.35;;
35326;SDS011;21436;52.348;20.928;2022-09-14T00:44:01;12.77;;;8.53;;
35326;SDS011;21436;52.348;20.928;2022-09-14T00:46:36;11.67;;;8.63;;
35326;SDS011;21436;52.348;20.928;2022-09-14T00:49:15;11.82;;;8.32;;
35326;SDS011;21436;52.348;20.928;2022-09-14T00:51:45;10.55;;;8.77;;
35326;SDS011;21436;52.348;20.928;2022-09-14T00:54:15;13.57;;;9.10;;
35326;SDS011;21436;52.348;20.928;2022-09-14T00:56:44;13.77;;;9.30;;
35326;SDS011;21436;52.348;20.928;2022-09-14T00:59:15;11.00;;;8.85;;
35326;SDS011;21436;52.348;20.928;2022-09-14T01:01:44;14.43;;;8.90;;
35326;SDS011;21436;52.348;20.928;2022-09-14T01:04:12;12.07;;;8.85;;
35326;SDS011;21436;52.348;20.928;2022-09-14T01:06:42;13.13;;;9.52;;
35326;SDS011;21436;52.348;20.928;2022-09-14T01:20:36;15.45;;;11.32;;
35326;SDS011;21436;52.348;20.928;2022-09-14T01:31:37;17.67;;;12.32;;
35326;SDS011;21436;52.348;20.928;2022-09-14T01:34:09;18.98;;;12.90;;
35326;SDS011;21436;52.348;20.928;2022-09-14T01:36:40;18.20;;;13.10;;
35326;SDS011;21436;52.348;20.928;2022-09-14T01:39:10;16.70;;;13.25;;
35326;SDS011;21436;52.348;20.928;2022-09-14T01:41:38;18.00;;;13.48;;
35326;SDS011;21436;52.348;20.928;2022-09-14T01:44:07;19.08;;;13.25;;
35326;SDS011;21436;52.348;20.928;2022-09-14T01:47:02;20.33;;;14.68;;
35326;SDS011;21436;52.348;20.928;2022-09-14T01:49:29;18.23;;;14.07;;
35326;SDS011;21436;52.348;20.928;2022-09-14T01:52:19;18.27;;;13.55;;
35326;SDS011;21436;52.348;20.928;2022-09-14T01:57:59;22.52;;;14.65;;
35326;SDS011;21436;52.348;20.928;2022-09-14T02:00:31;20.13;;;14.45;;
35326;SDS011;21436;52.348;20.928;2022-09-14T02:03:02;19.48;;;13.85;;
35326;SDS011;21436;52.348;20.928;2022-09-14T02:05:36;21.35;;;15.38;;
35326;SDS011;21436;52.348;20.928;2022-09-14T02:08:07;19.20;;;14.35;;
35326;SDS011;21436;52.348;20.928;2022-09-14T02:10:34;20.60;;;14.35;;
35326;SDS011;21436;52.348;20.928;2022-09-14T02:13:02;24.05;;;15.82;;
35326;SDS011;21436;52.348;20.928;2022-09-14T02:15:30;27.98;;;16.10;;
35326;SDS011;21436;52.348;20.928;2022-09-14T02:17:57;26.05;;;15.85;;
35326;SDS011;21436;52.348;20.928;2022-09-14T02:20:26;25.02;;;16.38;;
35326;SDS011;21436;52.348;20.928;2022-09-14T02:23:04;28.95;;;16.73;;
35326;SDS011;21436;52.348;20.928;2022-09-14T02:25:32;31.98;;;17.75;;
35326;SDS011;21436;52.348;20.928;2022-09-14T02:28:03;30.98;;;18.70;;
35326;SDS011;21436;52.348;20.928;2022-09-14T02:30:32;39.58;;;20.40;;
35326;SDS011;21436;52.348;20.928;2022-09-14T02:33:09;39.38;;;20.77;;
35326;SDS011;21436;52.348;20.928;2022-09-14T02:35:54;42.70;;;21.08;;
35326;SDS011;21436;52.348;20.928;2022-09-14T02:38:33;36.47;;;19.90;;
35326;SDS011;21436;52.348;20.928;2022-09-14T02:41:17;34.80;;;20.38;;
35326;SDS011;21436;52.348;20.928;2022-09-14T02:43:59;35.85;;;21.20;;
35326;SDS011;21436;52.348;20.928;2022-09-14T02:54:49;43.65;;;24.65;;
35326;SDS011;21436;52.348;20.928;2022-09-14T02:57:20;46.40;;;25.73;;
35326;SDS011;21436;52.348;20.928;2022-09-14T02:59:47;45.83;;;28.20;;
35326;SDS011;21436;52.348;20.928;2022-09-14T03:02:15;47.20;;;26.27;;
35326;SDS011;21436;52.348;20.928;2022-09-14T03:04:42;53.75;;;30.65;;
35326;SDS011;21436;52.348;20.928;2022-09-14T03:07:10;49.53;;;30.02;;
35326;SDS011;21436;52.348;20.928;2022-09-14T03:09:37;54.67;;;32.85;;
35326;SDS011;21436;52.348;20.928;2022-09-14T03:12:05;61.50;;;33.97;;
35326;SDS011;21436;52.348;20.928;2022-09-14T03:14:32;60.55;;;35.15;;
35326;SDS011;21436;52.348;20.928;2022-09-14T03:17:00;60.85;;;35.38;;
35326;SDS011;21436;52.348;20.928;2022-09-14T03:19:27;56.00;;;34.75;;
35326;SDS011;21436;52.348;20.928;2022-09-14T03:21:55;60.83;;;36.65;;
35326;SDS011;21436;52.348;20.928;2022-09-14T03:24:22;57.92;;;37.17;;
35326;SDS011;21436;52.348;20.928;2022-09-14T03:26:50;58.80;;;35.25;;
35326;SDS011;21436;52.348;20.928;2022-09-14T03:29:18;53.15;;;34.10;;
35326;SDS011;21436;52.348;20.928;2022-09-14T03:31:45;55.15;;;34.78;;
35326;SDS011;21436;52.348;20.928;2022-09-14T03:34:12;55.25;;;34.10;;
35326;SDS011;21436;52.348;20.928;2022-09-14T03:36:40;54.85;;;34.70;;
35326;SDS011;21436;52.348;20.928;2022-09-14T03:39:07;54.75;;;33.83;;
35326;SDS011;21436;52.348;20.928;2022-09-14T03:41:35;57.50;;;34.30;;
35326;SDS011;21436;52.348;20.928;2022-09-14T03:44:02;57.13;;;35.20;;
35326;SDS011;21436;52.348;20.928;2022-09-14T03:46:30;56.92;;;33.72;;
35326;SDS011;21436;52.348;20.928;2022-09-14T03:48:57;51.92;;;32.55;;
35326;SDS011;21436;52.348;20.928;2022-09-14T03:51:24;50.53;;;32.05;;
35326;SDS011;21436;52.348;20.928;2022-09-14T03:53:52;54.67;;;32.60;;
35326;SDS011;21436;52.348;20.928;2022-09-14T03:56:21;52.78;;;31.70;;
35326;SDS011;21436;52.348;20.928;2022-09-14T03:58:49;57.33;;;32.95;;
35326;SDS011;21436;52.348;20.928;2022-09-14T04:01:18;55.13;;;32.30;;
35326;SDS011;21436;52.348;20.928;2022-09-14T04:03:47;59.95;;;33.53;;
35326;SDS011;21436;52.348;20.928;2022-09-14T04:06:15;54.67;;;31.30;;
35326;SDS011;21436;52.348;20.928;2022-09-14T04:08:44;60.25;;;31.77;;
35326;SDS011;21436;52.348;20.928;2022-09-14T04:11:19;58.92;;;31.83;;
35326;SDS011;21436;52.348;20.928;2022-09-14T04:13:49;60.85;;;32.33;;
35326;SDS011;21436;52.348;20.928;2022-09-14T04:16:18;53.22;;;30.58;;
35326;SDS011;21436;52.348;20.928;2022-09-14T04:18:47;54.80;;;30.98;;
35326;SDS011;21436;52.348;20.928;2022-09-14T04:21:16;55.20;;;32.63;;
35326;SDS011;21436;52.348;20.928;2022-09-14T04:23:46;57.72;;;30.85;;
35326;SDS011;21436;52.348;20.928;2022-09-14T04:26:33;63.20;;;32.17;;
35326;SDS011;21436;52.348;20.928;2022-09-14T04:29:01;53.50;;;30.05;;
35326;SDS011;21436;52.348;20.928;2022-09-14T04:31:29;61.65;;;32.88;;
35326;SDS011;21436;52.348;20.928;2022-09-14T04:33:57;57.78;;;33.03;;
35326;SDS011;21436;52.348;20.928;2022-09-14T04:36:26;64.15;;;34.40;;
35326;SDS011;21436;52.348;20.928;2022-09-14T04:38:56;66.57;;;34.95;;
35326;SDS011;21436;52.348;20.928;2022-09-14T04:41:26;74.85;;;36.78;;
35326;SDS011;21436;52.348;20.928;2022-09-14T04:43:54;65.05;;;34.90;;
35326;SDS011;21436;52.348;20.928;2022-09-14T04:46:23;68.40;;;36.45;;
35326;SDS011;21436;52.348;20.928;2022-09-14T04:48:53;67.38;;;34.15;;
35326;SDS011;21436;52.348;20.928;2022-09-14T04:51:22;66.68;;;34.88;;
35326;SDS011;21436;52.348;20.928;2022-09-14T04:53:51;67.93;;;35.75;;
35326;SDS011;21436;52.348;20.928;2022-09-14T04:56:20;67.38;;;35.90;;
35326;SDS011;21436;52.348;20.928;2022-09-14T04:58:51;63.45;;;35.25;;
35326;SDS011;21436;52.348;20.928;2022-09-14T05:01:21;69.22;;;36.40;;
35326;SDS011;21436;52.348;20.928;2022-09-14T05:03:50;66.30;;;37.50;;
35326;SDS011;21436;52.348;20.928;2022-09-14T05:06:21;61.03;;;36.53;;
35326;SDS011;21436;52.348;20.928;2022-09-14T05:08:49;56.10;;;32.17;;
35326;SDS011;21436;52.348;20.928;2022-09-14T05:11:20;53.95;;;31.20;;
35326;SDS011;21436;52.348;20.928;2022-09-14T05:13:49;54.92;;;34.08;;
35326;SDS011;21436;52.348;20.928;2022-09-14T05:16:18;54.88;;;32.80;;
35326;SDS011;21436;52.348;20.928;2022-09-14T05:18:50;57.58;;;29.65;;
35326;SDS011;21436;52.348;20.928;2022-09-14T05:21:21;42.47;;;28.35;;
35326;SDS011;21436;52.348;20.928;2022-09-14T05:23:55;38.70;;;24.83;;
35326;SDS011;21436;52.348;20.928;2022-09-14T05:26:29;33.75;;;23.33;;
35326;SDS011;21436;52.348;20.928;2022-09-14T05:28:58;37.05;;;23.80;;
35326;SDS011;21436;52.348;20.928;2022-09-14T05:31:26;40.25;;;23.85;;
35326;SDS011;21436;52.348;20.928;2022-09-14T05:33:55;36.05;;;23.33;;
35326;SDS011;21436;52.348;20.928;2022-09-14T05:36:23;33.97;;;23.90;;
35326;SDS011;21436;52.348;20.928;2022-09-14T05:38:51;39.67;;;24.05;;
35326;SDS011;21436;52.348;20.928;2022-09-14T05:41:19;42.20;;;25.27;;
35326;SDS011;21436;52.348;20.928;2022-09-14T05:43:46;38.60;;;25.05;;
35326;SDS011;21436;52.348;20.928;2022-09-14T05:46:15;36.38;;;24.55;;
35326;SDS011;21436;52.348;20.928;2022-09-14T05:48:46;41.63;;;26.17;;
35326;SDS011;21436;52.348;20.928;2022-09-14T05:51:19;38.90;;;24.92;;
35326;SDS011;21436;52.348;20.928;2022-09-14T05:53:50;43.50;;;27.23;;
35326;SDS011;21436;52.348;20.928;2022-09-14T05:58:51;43.72;;;27.83;;
35326;SDS011;21436;52.348;20.928;2022-09-14T06:01:20;46.72;;;28.98;;
35326;SDS011;21436;52.348;20.928;2022-09-14T06:03:49;47.25;;;29.20;;
35326;SDS011;21436;52.348;20.928;2022-09-14T06:06:17;50.30;;;30.02;;
35326;SDS011;21436;52.348;20.928;2022-09-14T06:08:47;49.47;;;29.80;;
35326;SDS011;21436;52.348;20.928;2022-09-14T06:11:22;53.50;;;30.80;;
35326;SDS011;21436;52.348;20.928;2022-09-14T06:13:52;54.20;;;31.60;;
35326;SDS011;21436;52.348;20.928;2022-09-14T06:16:21;51.10;;;28.55;;
35326;SDS011;21436;52.348;20.928;2022-09-14T06:18:49;51.45;;;30.42;;
35326;SDS011;21436;52.348;20.928;2022-09-14T06:21:18;56.63;;;30.35;;
35326;SDS011;21436;52.348;20.928;2022-09-14T06:23:47;57.35;;;32.55;;
35326;SDS011;21436;52.348;20.928;2022-09-14T06:26:15;58.10;;;32.00;;
35326;SDS011;21436;52.348;20.928;2022-09-14T06:28:43;55.42;;;33.00;;
35326;SDS011;21436;52.348;20.928;2022-09-14T06:31:11;59.35;;;32.92;;
35326;SDS011;21436;52.348;20.928;2022-09-14T06:33:43;60.55;;;33.17;;
35326;SDS011;21436;52.348;20.928;2022-09-14T06:36:12;52.28;;;31.70;;
35326;SDS011;21436;52.348;20.928;2022-09-14T06:38:42;57.95;;;32.80;;
35326;SDS011;21436;52.348;20.928;2022-09-14T06:41:11;52.65;;;30.30;;
35326;SDS011;21436;52.348;20.928;2022-09-14T06:43:41;54.55;;;31.58;;
35326;SDS011;21436;52.348;20.928;2022-09-14T06:46:22;50.75;;;29.67;;
35326;SDS011;21436;52.348;20.928;2022-09-14T06:48:55;56.25;;;29.63;;
35326;SDS011;21436;52.348;20.928;2022-09-14T06:51:30;55.05;;;29.77;;
35326;SDS011;21436;52.348;20.928;2022-09-14T06:54:02;51.35;;;28.98;;
35326;SDS011;21436;52.348;20.928;2022-09-14T06:56:32;52.67;;;29.52;;
35326;SDS011;21436;52.348;20.928;2022-09-14T06:59:01;50.25;;;28.80;;
35326;SDS011;21436;52.348;20.928;2022-09-14T07:01:29;51.20;;;30.38;;
35326;SDS011;21436;52.348;20.928;2022-09-14T07:03:57;45.08;;;28.13;;
35326;SDS011;21436;52.348;20.928;2022-09-14T07:06:27;49.15;;;29.00;;
35326;SDS011;21436;52.348;20.928;2022-09-14T07:08:57;43.75;;;27.77;;
35326;SDS011;21436;52.348;20.928;2022-09-14T07:11:26;43.88;;;27.48;;
35326;SDS011;21436;52.348;20.928;2022-09-14T07:13:53;43.85;;;26.85;;
35326;SDS011;21436;52.348;20.928;2022-09-14T07:16:25;38.42;;;25.65;;
35326;SDS011;21436;52.348;20.928;2022-09-14T07:18:57;39.63;;;26.13;;
35326;SDS011;21436;52.348;20.928;2022-09-14T07:21:26;37.03;;;24.02;;
35326;SDS011;21436;52.348;20.928;2022-09-14T07:23:54;33.80;;;22.88;;
35326;SDS011;21436;52.348;20.928;2022-09-14T07:26:23;36.47;;;22.85;;
35326;SDS011;21436;52.348;20.928;2022-09-14T07:28:57;37.38;;;22.17;;
35326;SDS011;21436;52.348;20.928;2022-09-14T07:31:27;32.95;;;19.85;;
35326;SDS011;21436;52.348;20.928;2022-09-14T07:33:58;33.60;;;19.25;;
35326;SDS011;21436;52.348;20.928;2022-09-14T07:36:28;31.42;;;19.67;;
35326;SDS011;21436;52.348;20.928;2022-09-14T07:39:02;31.52;;;19.15;;
35326;SDS011;21436;52.348;20.928;2022-09-14T07:41:34;28.63;;;17.92;;
35326;SDS011;21436;52.348;20.928;2022-09-14T07:44:03;23.02;;;16.75;;
35326;SDS011;21436;52.348;20.928;2022-09-14T07:46:35;25.05;;;17.60;;
35326;SDS011;21436;52.348;20.928;2022-09-14T07:49:05;20.85;;;14.27;;
35326;SDS011;21436;52.348;20.928;2022-09-14T07:51:33;23.85;;;14.88;;
35326;SDS011;21436;52.348;20.928;2022-09-14T07:54:04;19.73;;;12.85;;
35326;SDS011;21436;52.348;20.928;2022-09-14T07:56:33;22.83;;;14.32;;
35326;SDS011;21436;52.348;20.928;2022-09-14T07:59:01;20.95;;;13.43;;
35326;SDS011;21436;52.348;20.928;2022-09-14T08:01:49;20.15;;;12.93;;
35326;SDS011;21436;52.348;20.928;2022-09-14T08:04:17;21.67;;;12.13;;
35326;SDS011;21436;52.348;20.928;2022-09-14T08:06:44;16.75;;;11.90;;
35326;SDS011;21436;52.348;20.928;2022-09-14T08:09:12;17.25;;;11.02;;
35326;SDS011;21436;52.348;20.928;2022-09-14T08:11:40;15.15;;;10.23;;
35326;SDS011;21436;52.348;20.928;2022-09-14T08:14:09;15.07;;;10.15;;
35326;SDS011;21436;52.348;20.928;2022-09-14T08:16:37;14.60;;;9.00;;
35326;SDS011;21436;52.348;20.928;2022-09-14T08:19:09;17.75;;;9.45;;
35326;SDS011;21436;52.348;20.928;2022-09-14T08:21:39;18.05;;;9.90;;
35326;SDS011;21436;52.348;20.928;2022-09-14T08:24:13;14.45;;;9.13;;
35326;SDS011;21436;52.348;20.928;2022-09-14T08:26:45;20.65;;;9.02;;
35326;SDS011;21436;52.348;20.928;2022-09-14T08:29:14;13.10;;;8.40;;
35326;SDS011;21436;52.348;20.928;2022-09-14T08:31:43;12.65;;;8.93;;
35326;SDS011;21436;52.348;20.928;2022-09-14T08:34:12;12.27;;;7.95;;
35326;SDS011;21436;52.348;20.928;2022-09-14T08:36:41;17.85;;;7.43;;
35326;SDS011;21436;52.348;20.928;2022-09-14T08:39:10;12.00;;;6.97;;
35326;SDS011;21436;52.348;20.928;2022-09-14T08:46:49;15.07;;;7.57;;
35326;SDS011;21436;52.348;20.928;2022-09-14T08:52:17;12.43;;;7.05;;
35326;SDS011;21436;52.348;20.928;2022-09-14T08:54:50;12.00;;;7.13;;
35326;SDS011;21436;52.348;20.928;2022-09-14T08:57:32;13.27;;;7.25;;
35326;SDS011;21436;52.348;20.928;2022-09-14T09:00:09;14.85;;;7.38;;
35326;SDS011;21436;52.348;20.928;2022-09-14T09:02:48;9.85;;;6.22;;
35326;SDS011;21436;52.348;20.928;2022-09-14T09:11:17;10.82;;;6.28;;
35326;SDS011;21436;52.348;20.928;2022-09-14T09:13:46;10.70;;;5.93;;
35326;SDS011;21436;52.348;20.928;2022-09-14T09:16:16;13.13;;;6.47;;
35326;SDS011;21436;52.348;20.928;2022-09-14T09:18:53;11.52;;;5.53;;
35326;SDS011;21436;52.348;20.928;2022-09-14T09:21:24;11.10;;;5.53;;
35326;SDS011;21436;52.348;20.928;2022-09-14T09:24:03;8.85;;;5.30;;
35326;SDS011;21436;52.348;20.928;2022-09-14T09:26:43;8.55;;;4.90;;
35326;SDS011;21436;52.348;20.928;2022-09-14T09:29:10;13.25;;;5.75;;
35326;SDS011;21436;52.348;20.928;2022-09-14T09:31:57;10.70;;;5.40;;
35326;SDS011;21436;52.348;20.928;2022-09-14T09:34:51;7.72;;;4.97;;
35326;SDS011;21436;52.348;20.928;2022-09-14T09:37:28;8.57;;;4.45;;
35326;SDS011;21436;52.348;20.928;2022-09-14T09:39:58;11.10;;;4.35;;
35326;SDS011;21436;52.348;20.928;2022-09-14T09:42:26;9.20;;;3.90;;
35326;SDS011;21436;52.348;20.928;2022-09-14T09:50:24;6.32;;;3.50;;
35326;SDS011;21436;52.348;20.928;2022-09-14T09:52:56;10.52;;;4.00;;
35326;SDS011;21436;52.348;20.928;2022-09-14T09:55:34;12.30;;;3.92;;
35326;SDS011;21436;52.348;20.928;2022-09-14T10:01:06;7.68;;;3.92;;
35326;SDS011;21436;52.348;20.928;2022-09-14T10:04:01;7.40;;;3.33;;
35326;SDS011;21436;52.348;20.928;2022-09-14T10:06:29;6.53;;;3.45;;
35326;SDS011;21436;52.348;20.928;2022-09-14T10:08:58;6.60;;;3.38;;
35326;SDS011;21436;52.348;20.928;2022-09-14T10:11:35;9.02;;;3.17;;
35326;SDS011;21436;52.348;20.928;2022-09-14T10:14:04;4.03;;;2.92;;
35326;SDS011;21436;52.348;20.928;2022-09-14T10:16:36;5.45;;;3.58;;
35326;SDS011;21436;52.348;20.928;2022-09-14T10:19:12;6.63;;;3.50;;
35326;SDS011;21436;52.348;20.928;2022-09-14T10:24:56;8.52;;;3.88;;
35326;SDS011;21436;52.348;20.928;2022-09-14T10:27:30;7.60;;;4.35;;
35326;SDS011;21436;52.348;20.928;2022-09-14T10:30:19;8.63;;;3.85;;
35326;SDS011;21436;52.348;20.928;2022-09-14T10:32:59;6.95;;;4.78;;
35326;SDS011;21436;52.348;20.928;2022-09-14T10:41:33;9.57;;;4.03;;
35326;SDS011;21436;52.348;20.928;2022-09-14T10:58:39;5.78;;;3.88;;
35326;SDS011;21436;52.348;20.928;2022-09-14T11:01:17;12.90;;;4.57;;
35326;SDS011;21436;52.348;20.928;2022-09-14T11:12:13;7.25;;;3.70;;
35326;SDS011;21436;52.348;20.928;2022-09-14T11:20:47;6.50;;;3.10;;
35326;SDS011;21436;52.348;20.928;2022-09-14T11:26:08;5.95;;;2.30;;
35326;SDS011;21436;52.348;20.928;2022-09-14T11:28:43;5.18;;;2.90;;
35326;SDS011;21436;52.348;20.928;2022-09-14T11:36:55;9.07;;;3.03;;
35326;SDS011;21436;52.348;20.928;2022-09-14T11:39:33;6.13;;;2.85;;
35326;SDS011;21436;52.348;20.928;2022-09-14T11:42:09;4.90;;;2.55;;
35326;SDS011;21436;52.348;20.928;2022-09-14T11:44:53;5.63;;;2.55;;
35326;SDS011;21436;52.348;20.928;2022-09-14T11:47:25;4.88;;;2.58;;
35326;SDS011;21436;52.348;20.928;2022-09-14T11:49:55;4.05;;;2.55;;
35326;SDS011;21436;52.348;20.928;2022-09-14T11:52:30;7.35;;;2.47;;
35326;SDS011;21436;52.348;20.928;2022-09-14T11:55:00;4.35;;;2.28;;
35326;SDS011;21436;52.348;20.928;2022-09-14T11:57:30;3.95;;;2.08;;
35326;SDS011;21436;52.348;20.928;2022-09-14T12:00:00;7.43;;;3.00;;
35326;SDS011;21436;52.348;20.928;2022-09-14T12:12:42;4.55;;;2.10;;
35326;SDS011;21436;52.348;20.928;2022-09-14T12:15:36;4.93;;;1.77;;
35326;SDS011;21436;52.348;20.928;2022-09-14T12:20:45;4.78;;;2.40;;
35326;SDS011;21436;52.348;20.928;2022-09-14T12:23:22;3.50;;;2.03;;
35326;SDS011;21436;52.348;20.928;2022-09-14T12:31:29;3.10;;;2.00;;
35326;SDS011;21436;52.348;20.928;2022-09-14T12:36:59;3.60;;;2.00;;
35326;SDS011;21436;52.348;20.928;2022-09-14T12:42:53;4.00;;;2.33;;
35326;SDS011;21436;52.348;20.928;2022-09-14T12:48:41;3.60;;;2.28;;
35326;SDS011;21436;52.348;20.928;2022-09-14T13:00:11;4.40;;;2.10;;
35326;SDS011;21436;52.348;20.928;2022-09-14T13:05:45;5.05;;;2.20;;
35326;SDS011;21436;52.348;20.928;2022-09-14T13:08:14;5.15;;;2.00;;
35326;SDS011;21436;52.348;20.928;2022-09-14T13:10:47;5.75;;;2.30;;
35326;SDS011;21436;52.348;20.928;2022-09-14T13:13:21;5.60;;;2.35;;
35326;SDS011;21436;52.348;20.928;2022-09-14T13:15:54;5.22;;;2.13;;
35326;SDS011;21436;52.348;20.928;2022-09-14T13:18:27;4.38;;;1.95;;
35326;SDS011;21436;52.348;20.928;2022-09-14T13:20:58;5.82;;;2.00;;
35326;SDS011;21436;52.348;20.928;2022-09-14T13:23:45;5.15;;;2.30;;
35326;SDS011;21436;52.348;20.928;2022-09-14T13:28:46;3.05;;;1.88;;
35326;SDS011;21436;52.348;20.928;2022-09-14T13:31:22;3.47;;;2.10;;
35326;SDS011;21436;52.348;20.928;2022-09-14T13:33:54;3.95;;;2.03;;
35326;SDS011;21436;52.348;20.928;2022-09-14T13:36:23;5.03;;;1.90;;
35326;SDS011;21436;52.348;20.928;2022-09-14T13:41:24;4.35;;;2.10;;
35326;SDS011;21436;52.348;20.928;2022-09-14T13:43:52;3.95;;;2.10;;
35326;SDS011;21436;52.348;20.928;2022-09-14T13:46:21;4.68;;;2.00;;
35326;SDS011;21436;52.348;20.928;2022-09-14T13:48:50;6.82;;;2.13;;
35326;SDS011;21436;52.348;20.928;2022-09-14T13:51:22;7.18;;;2.00;;
35326;SDS011;21436;52.348;20.928;2022-09-14T13:53:53;6.72;;;2.28;;
35326;SDS011;21436;52.348;20.928;2022-09-14T13:56:29;5.90;;;2.20;;
35326;SDS011;21436;52.348;20.928;2022-09-14T14:01:38;6.93;;;2.45;;
35326;SDS011;21436;52.348;20.928;2022-09-14T14:12:26;4.15;;;1.92;;
35326;SDS011;21436;52.348;20.928;2022-09-14T14:14:57;5.97;;;2.60;;
35326;SDS011;21436;52.348;20.928;2022-09-14T14:19:58;4.97;;;2.28;;
35326;SDS011;21436;52.348;20.928;2022-09-14T14:22:28;5.70;;;2.38;;
35326;SDS011;21436;52.348;20.928;2022-09-14T14:24:58;8.45;;;2.40;;
35326;SDS011;21436;52.348;20.928;2022-09-14T14:30:14;4.22;;;2.17;;
35326;SDS011;21436;52.348;20.928;2022-09-14T14:32:52;3.92;;;1.80;;
35326;SDS011;21436;52.348;20.928;2022-09-14T14:35:22;3.10;;;1.98;;
35326;SDS011;21436;52.348;20.928;2022-09-14T14:37:52;6.88;;;2.35;;
35326;SDS011;21436;52.348;20.928;2022-09-14T14:40:21;6.32;;;2.40;;
35326;SDS011;21436;52.348;20.928;2022-09-14T14:42:49;4.57;;;1.77;;
35326;SDS011;21436;52.348;20.928;2022-09-14T14:45:19;5.05;;;2.08;;
35326;SDS011;21436;52.348;20.928;2022-09-14T14:47:48;5.00;;;2.20;;
35326;SDS011;21436;52.348;20.928;2022-09-14T14:50:20;3.72;;;2.13;;
35326;SDS011;21436;52.348;20.928;2022-09-14T14:52:49;6.10;;;2.15;;
35326;SDS011;21436;52.348;20.928;2022-09-14T14:55:18;5.55;;;2.33;;
35326;SDS011;21436;52.348;20.928;2022-09-14T14:57:47;3.65;;;1.90;;
35326;SDS011;21436;52.348;20.928;2022-09-14T15:00:20;5.45;;;2.00;;
35326;SDS011;21436;52.348;20.928;2022-09-14T15:02:49;3.95;;;2.13;;
35326;SDS011;21436;52.348;20.928;2022-09-14T15:05:17;6.50;;;1.73;;
35326;SDS011;21436;52.348;20.928;2022-09-14T15:07:45;5.25;;;2.22;;
35326;SDS011;21436;52.348;20.928;2022-09-14T15:10:16;5.13;;;2.00;;
35326;SDS011;21436;52.348;20.928;2022-09-14T15:12:44;4.07;;;1.80;;
35326;SDS011;21436;52.348;20.928;2022-09-14T15:15:16;3.78;;;1.90;;
35326;SDS011;21436;52.348;20.928;2022-09-14T15:17:45;4.03;;;1.98;;
35326;SDS011;21436;52.348;20.928;2022-09-14T15:20:13;5.43;;;1.90;;
35326;SDS011;21436;52.348;20.928;2022-09-14T15:22:41;4.93;;;2.35;;
35326;SDS011;21436;52.348;20.928;2022-09-14T15:25:09;4.43;;;2.45;;
35326;SDS011;21436;52.348;20.928;2022-09-14T15:27:38;5.07;;;2.13;;
35326;SDS011;21436;52.348;20.928;2022-09-14T15:30:07;4.47;;;1.58;;
35326;SDS011;21436;52.348;20.928;2022-09-14T15:32:35;5.65;;;1.95;;
35326;SDS011;21436;52.348;20.928;2022-09-14T15:35:06;3.83;;;1.80;;
35326;SDS011;21436;52.348;20.928;2022-09-14T15:37:36;4.72;;;2.08;;
35326;SDS011;21436;52.348;20.928;2022-09-14T15:40:04;2.83;;;1.88;;
35326;SDS011;21436;52.348;20.928;2022-09-14T15:42:32;3.58;;;2.13;;
35326;SDS011;21436;52.348;20.928;2022-09-14T15:44:59;8.20;;;2.53;;
35326;SDS011;21436;52.348;20.928;2022-09-14T15:47:27;5.75;;;2.45;;
35326;SDS011;21436;52.348;20.928;2022-09-14T15:50:01;3.80;;;1.85;;
35326;SDS011;21436;52.348;20.928;2022-09-14T15:52:29;2.67;;;1.95;;
35326;SDS011;21436;52.348;20.928;2022-09-14T15:54:56;4.15;;;1.80;;
35326;SDS011;21436;52.348;20.928;2022-09-14T15:57:24;6.78;;;2.13;;
35326;SDS011;21436;52.348;20.928;2022-09-14T15:59:52;8.45;;;1.95;;
35326;SDS011;21436;52.348;20.928;2022-09-14T16:02:20;5.65;;;2.13;;
35326;SDS011;21436;52.348;20.928;2022-09-14T16:04:48;4.60;;;2.00;;
35326;SDS011;21436;52.348;20.928;2022-09-14T16:07:15;5.03;;;2.38;;
35326;SDS011;21436;52.348;20.928;2022-09-14T16:09:43;3.03;;;1.88;;
35326;SDS011;21436;52.348;20.928;2022-09-14T16:12:12;9.82;;;2.20;;
35326;SDS011;21436;52.348;20.928;2022-09-14T16:14:39;7.63;;;2.15;;
35326;SDS011;21436;52.348;20.928;2022-09-14T16:17:07;9.68;;;2.53;;
35326;SDS011;21436;52.348;20.928;2022-09-14T16:19:37;3.42;;;2.22;;
35326;SDS011;21436;52.348;20.928;2022-09-14T16:22:04;5.95;;;2.17;;
35326;SDS011;21436;52.348;20.928;2022-09-14T16:24:32;10.20;;;2.63;;
35326;SDS011;21436;52.348;20.928;2022-09-14T16:27:00;9.25;;;2.60;;
35326;SDS011;21436;52.348;20.928;2022-09-14T16:29:27;7.97;;;2.72;;
35326;SDS011;21436;52.348;20.928;2022-09-14T16:31:55;5.82;;;2.30;;
35326;SDS011;21436;52.348;20.928;2022-09-14T16:34:26;5.95;;;2.65;;
35326;SDS011;21436;52.348;20.928;2022-09-14T16:36:55;7.55;;;2.90;;
35326;SDS011;21436;52.348;20.928;2022-09-14T16:39:25;10.68;;;2.85;;
35326;SDS011;21436;52.348;20.928;2022-09-14T16:41:55;9.07;;;2.67;;
35326;SDS011;21436;52.348;20.928;2022-09-14T16:44:23;7.05;;;2.53;;
35326;SDS011;21436;52.348;20.928;2022-09-14T16:46:53;6.40;;;2.30;;
35326;SDS011;21436;52.348;20.928;2022-09-14T16:49:23;8.75;;;3.45;;
35326;SDS011;21436;52.348;20.928;2022-09-14T16:51:56;7.43;;;3.67;;
35326;SDS011;21436;52.348;20.928;2022-09-14T16:54:26;4.60;;;2.47;;
35326;SDS011;21436;52.348;20.928;2022-09-14T16:56:56;5.28;;;2.75;;
35326;SDS011;21436;52.348;20.928;2022-09-14T16:59:25;10.98;;;3.25;;
35326;SDS011;21436;52.348;20.928;2022-09-14T17:01:53;10.75;;;3.75;;
35326;SDS011;21436;52.348;20.928;2022-09-14T17:04:22;7.53;;;3.40;;
35326;SDS011;21436;52.348;20.928;2022-09-14T17:06:51;11.82;;;4.13;;
35326;SDS011;21436;52.348;20.928;2022-09-14T17:09:20;7.43;;;3.70;;
35326;SDS011;21436;52.348;20.928;2022-09-14T17:11:58;6.75;;;3.78;;
35326;SDS011;21436;52.348;20.928;2022-09-14T17:14:31;9.23;;;4.00;;
35326;SDS011;21436;52.348;20.928;2022-09-14T17:16:59;10.70;;;3.78;;
35326;SDS011;21436;52.348;20.928;2022-09-14T17:19:27;7.30;;;3.80;;
35326;SDS011;21436;52.348;20.928;2022-09-14T17:21:55;6.07;;;4.38;;
35326;SDS011;21436;52.348;20.928;2022-09-14T17:24:23;7.32;;;4.07;;
35326;SDS011;21436;52.348;20.928;2022-09-14T17:26:51;8.85;;;4.40;;